sensor_id;sensor_type;location;lat;lon;timestamp;P1;durP1;ratioP1;P2;durP2;ratioP2
25237;SDS011;13185;50.872;5.306;2023-08-01T06:35:21;10.35;;;4.43;;
25237;SDS011;13185;50.872;5.306;2023-08-01T06:37:47;8.75;;;3.80;;
25237;SDS011;13185;50.872;5.306;2023-08-01T06:40:12;10.77;;;4.47;;
25237;SDS011;13185;50.872;5.306;2023-08-01T06:42:38;6.13;;;3.67;;
25237;SDS011;13185;50.872;5.306;2023-08-01T06:45:03;8.05;;;3.45;;
25237;SDS011;13185;50.872;5.306;2023-08-01T06:47:31;10.85;;;4.07;;
25237;SDS011;13185;50.872;5.306;2023-08-01T06:49:56;9.70;;;4.07;;
25237;SDS011;13185;50.872;5.306;2023-08-01T06:52:22;9.32;;;4.15;;
25237;SDS011;13185;50.872;5.306;2023-08-01T06:54:48;10.50;;;4.65;;
25237;SDS011;13185;50.872;5.306;2023-08-01T06:57:13;8.48;;;3.70;;
25237;SDS011;13185;50.872;5.306;2023-08-01T06:59:39;12.65;;;4.07;;
25237;SDS011;13185;50.872;5.306;2023-08-01T07:02:04;9.10;;;4.10;;
25237;SDS011;13185;50.872;5.306;2023-08-01T07:04:31;7.70;;;3.97;;
25237;SDS011;13185;50.872;5.306;2023-08-01T07:06:56;11.10;;;4.40;;
25237;SDS011;13185;50.872;5.306;2023-08-01T07:09:22;17.38;;;4.90;;
25237;SDS011;13185;50.872;5.306;2023-08-01T07:11:47;7.68;;;4.00;;
25237;SDS011;13185;50.872;5.306;2023-08-01T07:14:13;13.52;;;4.10;;
25237;SDS011;13185;50.872;5.306;2023-08-01T07:16:39;11.32;;;4.32;;
25237;SDS011;13185;50.872;5.306;2023-08-01T07:19:04;8.77;;;4.22;;
25237;SDS011;13185;50.872;5.306;2023-08-01T07:21:30;10.95;;;3.85;;
25237;SDS011;13185;50.872;5.306;2023-08-01T07:23:55;7.65;;;4.07;;
25237;SDS011;13185;50.872;5.306;2023-08-01T07:26:22;8.68;;;3.35;;
25237;SDS011;13185;50.872;5.306;2023-08-01T07:28:48;7.03;;;3.80;;
25237;SDS011;13185;50.872;5.306;2023-08-01T07:31:14;8.30;;;3.45;;
25237;SDS011;13185;50.872;5.306;2023-08-01T07:33:39;9.55;;;3.83;;
25237;SDS011;13185;50.872;5.306;2023-08-01T07:36:05;7.68;;;3.67;;
25237;SDS011;13185;50.872;5.306;2023-08-01T07:38:30;7.43;;;3.63;;
25237;SDS011;13185;50.872;5.306;2023-08-01T07:41:01;10.50;;;3.38;;
25237;SDS011;13185;50.872;5.306;2023-08-01T07:43:28;9.63;;;3.63;;
25237;SDS011;13185;50.872;5.306;2023-08-01T07:45:57;11.85;;;4.20;;
25237;SDS011;13185;50.872;5.306;2023-08-01T07:48:23;8.35;;;3.53;;
25237;SDS011;13185;50.872;5.306;2023-08-01T07:50:49;10.32;;;3.92;;
25237;SDS011;13185;50.872;5.306;2023-08-01T07:53:14;8.93;;;3.90;;
25237;SDS011;13185;50.872;5.306;2023-08-01T07:55:40;10.95;;;3.70;;
25237;SDS011;13185;50.872;5.306;2023-08-01T07:58:06;7.72;;;3.90;;
25237;SDS011;13185;50.872;5.306;2023-08-01T08:00:32;6.25;;;3.33;;
25237;SDS011;13185;50.872;5.306;2023-08-01T08:02:59;9.43;;;3.97;;
25237;SDS011;13185;50.872;5.306;2023-08-01T08:05:25;9.13;;;4.32;;
25237;SDS011;13185;50.872;5.306;2023-08-01T08:07:50;8.73;;;4.18;;
25237;SDS011;13185;50.872;5.306;2023-08-01T08:10:16;7.25;;;4.35;;
25237;SDS011;13185;50.872;5.306;2023-08-01T08:12:44;8.60;;;4.00;;
25237;SDS011;13185;50.872;5.306;2023-08-01T08:15:09;9.05;;;4.43;;
25237;SDS011;13185;50.872;5.306;2023-08-01T08:17:35;7.63;;;4.30;;
25237;SDS011;13185;50.872;5.306;2023-08-01T08:20:04;8.73;;;3.50;;
25237;SDS011;13185;50.872;5.306;2023-08-01T08:22:31;6.05;;;3.28;;
25237;SDS011;13185;50.872;5.306;2023-08-01T08:24:57;8.00;;;3.58;;
25237;SDS011;13185;50.872;5.306;2023-08-01T08:27:22;6.97;;;2.88;;
25237;SDS011;13185;50.872;5.306;2023-08-01T08:29:51;7.90;;;3.60;;
25237;SDS011;13185;50.872;5.306;2023-08-01T08:32:16;6.80;;;3.17;;
25237;SDS011;13185;50.872;5.306;2023-08-01T08:34:42;6.32;;;3.13;;
25237;SDS011;13185;50.872;5.306;2023-08-01T08:37:08;8.18;;;3.33;;
25237;SDS011;13185;50.872;5.306;2023-08-01T08:39:34;6.63;;;2.35;;
25237;SDS011;13185;50.872;5.306;2023-08-01T08:41:59;8.75;;;2.70;;
25237;SDS011;13185;50.872;5.306;2023-08-01T08:44:25;7.97;;;2.80;;
25237;SDS011;13185;50.872;5.306;2023-08-01T08:46:54;5.90;;;2.85;;
25237;SDS011;13185;50.872;5.306;2023-08-01T08:49:25;8.48;;;3.95;;
25237;SDS011;13185;50.872;5.306;2023-08-01T08:51:52;5.80;;;2.30;;
25237;SDS011;13185;50.872;5.306;2023-08-01T08:54:19;5.25;;;2.40;;
25237;SDS011;13185;50.872;5.306;2023-08-01T08:56:48;6.68;;;2.45;;
25237;SDS011;13185;50.872;5.306;2023-08-01T08:59:14;6.68;;;3.08;;
25237;SDS011;13185;50.872;5.306;2023-08-01T09:01:40;7.03;;;3.25;;
25237;SDS011;13185;50.872;5.306;2023-08-01T09:04:06;7.97;;;2.90;;
25237;SDS011;13185;50.872;5.306;2023-08-01T09:06:37;7.63;;;2.95;;
25237;SDS011;13185;50.872;5.306;2023-08-01T09:09:10;7.97;;;2.95;;
25237;SDS011;13185;50.872;5.306;2023-08-01T09:14:14;8.20;;;3.08;;
25237;SDS011;13185;50.872;5.306;2023-08-01T09:16:40;5.15;;;2.38;;
25237;SDS011;13185;50.872;5.306;2023-08-01T09:19:06;4.57;;;1.90;;
25237;SDS011;13185;50.872;5.306;2023-08-01T09:21:35;7.40;;;2.95;;
25237;SDS011;13185;50.872;5.306;2023-08-01T09:24:10;8.45;;;2.75;;
25237;SDS011;13185;50.872;5.306;2023-08-01T09:26:40;6.03;;;2.78;;
25237;SDS011;13185;50.872;5.306;2023-08-01T09:29:06;4.60;;;2.45;;
25237;SDS011;13185;50.872;5.306;2023-08-01T09:31:33;7.45;;;2.10;;
25237;SDS011;13185;50.872;5.306;2023-08-01T09:34:01;8.45;;;2.20;;
25237;SDS011;13185;50.872;5.306;2023-08-01T09:36:31;9.18;;;2.45;;
25237;SDS011;13185;50.872;5.306;2023-08-01T09:39:03;5.57;;;1.80;;
25237;SDS011;13185;50.872;5.306;2023-08-01T09:41:29;5.60;;;1.88;;
25237;SDS011;13185;50.872;5.306;2023-08-01T09:43:56;4.20;;;2.15;;
25237;SDS011;13185;50.872;5.306;2023-08-01T09:46:22;5.30;;;2.05;;
25237;SDS011;13185;50.872;5.306;2023-08-01T09:48:48;5.85;;;1.80;;
25237;SDS011;13185;50.872;5.306;2023-08-01T09:51:14;4.68;;;1.63;;
25237;SDS011;13185;50.872;5.306;2023-08-01T09:53:55;6.90;;;1.60;;
25237;SDS011;13185;50.872;5.306;2023-08-01T09:56:22;4.38;;;1.60;;
25237;SDS011;13185;50.872;5.306;2023-08-01T09:58:50;5.78;;;1.92;;
25237;SDS011;13185;50.872;5.306;2023-08-01T10:01:18;5.50;;;1.75;;
25237;SDS011;13185;50.872;5.306;2023-08-01T10:03:48;5.47;;;1.98;;
25237;SDS011;13185;50.872;5.306;2023-08-01T10:06:21;6.15;;;1.75;;
25237;SDS011;13185;50.872;5.306;2023-08-01T10:08:49;6.65;;;1.90;;
25237;SDS011;13185;50.872;5.306;2023-08-01T10:11:17;7.63;;;2.22;;
25237;SDS011;13185;50.872;5.306;2023-08-01T10:13:47;6.68;;;1.65;;
25237;SDS011;13185;50.872;5.306;2023-08-01T10:16:13;6.07;;;2.33;;
25237;SDS011;13185;50.872;5.306;2023-08-01T10:18:40;5.03;;;1.42;;
25237;SDS011;13185;50.872;5.306;2023-08-01T10:21:06;4.10;;;1.50;;
25237;SDS011;13185;50.872;5.306;2023-08-01T10:23:35;6.03;;;1.98;;
25237;SDS011;13185;50.872;5.306;2023-08-01T10:26:01;5.68;;;1.70;;
25237;SDS011;13185;50.872;5.306;2023-08-01T10:28:33;7.05;;;1.90;;
25237;SDS011;13185;50.872;5.306;2023-08-01T10:31:09;8.90;;;1.65;;
25237;SDS011;13185;50.872;5.306;2023-08-01T10:33:37;4.22;;;1.60;;
25237;SDS011;13185;50.872;5.306;2023-08-01T10:36:16;3.72;;;1.67;;
25237;SDS011;13185;50.872;5.306;2023-08-01T10:38:53;4.15;;;1.17;;
25237;SDS011;13185;50.872;5.306;2023-08-01T10:43:47;2.92;;;1.40;;
25237;SDS011;13185;50.872;5.306;2023-08-01T10:46:12;4.57;;;1.40;;
25237;SDS011;13185;50.872;5.306;2023-08-01T10:48:48;4.95;;;1.20;;
25237;SDS011;13185;50.872;5.306;2023-08-01T10:51:14;7.05;;;1.50;;
25237;SDS011;13185;50.872;5.306;2023-08-01T10:53:40;4.20;;;1.45;;
25237;SDS011;13185;50.872;5.306;2023-08-01T10:56:06;4.22;;;1.20;;
25237;SDS011;13185;50.872;5.306;2023-08-01T10:58:33;4.70;;;1.98;;
25237;SDS011;13185;50.872;5.306;2023-08-01T11:00:59;5.80;;;1.50;;
25237;SDS011;13185;50.872;5.306;2023-08-01T11:03:34;3.22;;;1.33;;
25237;SDS011;13185;50.872;5.306;2023-08-01T11:06:03;4.57;;;1.67;;
25237;SDS011;13185;50.872;5.306;2023-08-01T11:08:39;6.55;;;2.05;;
25237;SDS011;13185;50.872;5.306;2023-08-01T11:11:07;3.78;;;1.48;;
25237;SDS011;13185;50.872;5.306;2023-08-01T11:13:36;5.18;;;1.48;;
25237;SDS011;13185;50.872;5.306;2023-08-01T11:16:02;5.50;;;1.90;;
25237;SDS011;13185;50.872;5.306;2023-08-01T11:18:29;5.25;;;1.60;;
25237;SDS011;13185;50.872;5.306;2023-08-01T11:20:56;5.45;;;2.00;;
25237;SDS011;13185;50.872;5.306;2023-08-01T11:23:27;6.00;;;1.75;;
25237;SDS011;13185;50.872;5.306;2023-08-01T11:25:54;7.85;;;1.63;;
25237;SDS011;13185;50.872;5.306;2023-08-01T11:28:20;6.78;;;1.67;;
25237;SDS011;13185;50.872;5.306;2023-08-01T11:30:48;5.28;;;1.60;;
25237;SDS011;13185;50.872;5.306;2023-08-01T11:33:14;5.30;;;1.50;;
25237;SDS011;13185;50.872;5.306;2023-08-01T11:35:43;5.90;;;1.92;;
25237;SDS011;13185;50.872;5.306;2023-08-01T11:38:08;5.03;;;1.65;;
25237;SDS011;13185;50.872;5.306;2023-08-01T11:40:34;4.43;;;1.42;;
25237;SDS011;13185;50.872;5.306;2023-08-01T11:43:07;2.83;;;0.90;;
25237;SDS011;13185;50.872;5.306;2023-08-01T11:45:33;2.50;;;1.20;;
25237;SDS011;13185;50.872;5.306;2023-08-01T11:47:58;3.40;;;1.58;;
25237;SDS011;13185;50.872;5.306;2023-08-01T11:50:24;4.65;;;1.13;;
25237;SDS011;13185;50.872;5.306;2023-08-01T11:52:51;3.10;;;1.23;;
25237;SDS011;13185;50.872;5.306;2023-08-01T11:55:21;3.75;;;1.13;;
25237;SDS011;13185;50.872;5.306;2023-08-01T11:57:53;2.63;;;1.20;;
25237;SDS011;13185;50.872;5.306;2023-08-01T12:00:23;3.15;;;1.20;;
25237;SDS011;13185;50.872;5.306;2023-08-01T12:03:03;3.45;;;1.20;;
25237;SDS011;13185;50.872;5.306;2023-08-01T12:05:30;5.15;;;1.33;;
25237;SDS011;13185;50.872;5.306;2023-08-01T12:07:56;4.32;;;1.38;;
25237;SDS011;13185;50.872;5.306;2023-08-01T12:10:21;3.45;;;1.10;;
25237;SDS011;13185;50.872;5.306;2023-08-01T12:12:47;3.50;;;1.50;;
25237;SDS011;13185;50.872;5.306;2023-08-01T12:15:14;5.53;;;1.20;;
25237;SDS011;13185;50.872;5.306;2023-08-01T12:17:40;4.03;;;1.35;;
25237;SDS011;13185;50.872;5.306;2023-08-01T12:20:06;4.15;;;1.38;;
25237;SDS011;13185;50.872;5.306;2023-08-01T12:22:32;5.20;;;1.42;;
25237;SDS011;13185;50.872;5.306;2023-08-01T12:24:58;3.95;;;1.10;;
25237;SDS011;13185;50.872;5.306;2023-08-01T12:27:23;3.65;;;1.10;;
25237;SDS011;13185;50.872;5.306;2023-08-01T12:29:49;5.18;;;1.00;;
25237;SDS011;13185;50.872;5.306;2023-08-01T12:32:14;6.47;;;1.30;;
25237;SDS011;13185;50.872;5.306;2023-08-01T12:34:40;5.35;;;1.20;;
25237;SDS011;13185;50.872;5.306;2023-08-01T12:37:05;3.03;;;1.40;;
25237;SDS011;13185;50.872;5.306;2023-08-01T12:39:31;3.05;;;0.88;;
25237;SDS011;13185;50.872;5.306;2023-08-01T12:41:56;4.50;;;1.48;;
25237;SDS011;13185;50.872;5.306;2023-08-01T12:44:22;5.10;;;1.50;;
25237;SDS011;13185;50.872;5.306;2023-08-01T12:46:48;5.80;;;1.40;;
25237;SDS011;13185;50.872;5.306;2023-08-01T12:49:13;5.63;;;1.30;;
25237;SDS011;13185;50.872;5.306;2023-08-01T12:51:39;5.18;;;1.50;;
25237;SDS011;13185;50.872;5.306;2023-08-01T12:54:05;3.67;;;1.40;;
25237;SDS011;13185;50.872;5.306;2023-08-01T12:56:31;4.80;;;1.30;;
25237;SDS011;13185;50.872;5.306;2023-08-01T12:58:57;4.38;;;1.25;;
25237;SDS011;13185;50.872;5.306;2023-08-01T13:01:22;9.70;;;1.40;;
25237;SDS011;13185;50.872;5.306;2023-08-01T13:03:51;5.85;;;1.10;;
25237;SDS011;13185;50.872;5.306;2023-08-01T13:06:16;3.75;;;1.30;;
25237;SDS011;13185;50.872;5.306;2023-08-01T13:08:42;4.43;;;1.25;;
25237;SDS011;13185;50.872;5.306;2023-08-01T13:11:12;6.63;;;1.70;;
25237;SDS011;13185;50.872;5.306;2023-08-01T13:13:39;2.38;;;0.80;;
25237;SDS011;13185;50.872;5.306;2023-08-01T13:16:06;5.80;;;1.20;;
25237;SDS011;13185;50.872;5.306;2023-08-01T13:18:31;4.55;;;1.20;;
25237;SDS011;13185;50.872;5.306;2023-08-01T13:20:57;5.03;;;1.50;;
25237;SDS011;13185;50.872;5.306;2023-08-01T13:23:24;2.80;;;1.00;;
25237;SDS011;13185;50.872;5.306;2023-08-01T13:25:50;4.05;;;1.20;;
25237;SDS011;13185;50.872;5.306;2023-08-01T13:28:16;4.07;;;1.10;;
25237;SDS011;13185;50.872;5.306;2023-08-01T13:30:42;2.70;;;1.10;;
25237;SDS011;13185;50.872;5.306;2023-08-01T13:33:07;8.07;;;1.33;;
25237;SDS011;13185;50.872;5.306;2023-08-01T13:35:33;6.35;;;1.20;;
25237;SDS011;13185;50.872;5.306;2023-08-01T13:37:59;5.97;;;1.15;;
25237;SDS011;13185;50.872;5.306;2023-08-01T13:40:25;5.88;;;1.17;;
25237;SDS011;13185;50.872;5.306;2023-08-01T13:42:50;4.90;;;2.15;;
25237;SDS011;13185;50.872;5.306;2023-08-01T13:45:16;3.25;;;0.98;;
25237;SDS011;13185;50.872;5.306;2023-08-01T13:47:42;3.40;;;1.02;;
25237;SDS011;13185;50.872;5.306;2023-08-01T13:50:07;3.90;;;1.63;;
25237;SDS011;13185;50.872;5.306;2023-08-01T13:52:34;3.90;;;1.13;;
25237;SDS011;13185;50.872;5.306;2023-08-01T13:55:01;7.57;;;1.05;;
25237;SDS011;13185;50.872;5.306;2023-08-01T13:57:28;10.10;;;1.42;;
25237;SDS011;13185;50.872;5.306;2023-08-01T13:59:53;6.60;;;1.35;;
25237;SDS011;13185;50.872;5.306;2023-08-01T14:02:19;1.73;;;0.82;;
25237;SDS011;13185;50.872;5.306;2023-08-01T14:04:44;8.02;;;1.55;;
25237;SDS011;13185;50.872;5.306;2023-08-01T14:07:10;4.18;;;1.10;;
25237;SDS011;13185;50.872;5.306;2023-08-01T14:09:35;2.05;;;0.60;;
25237;SDS011;13185;50.872;5.306;2023-08-01T14:12:01;2.20;;;0.45;;
25237;SDS011;13185;50.872;5.306;2023-08-01T14:14:27;3.35;;;0.80;;
25237;SDS011;13185;50.872;5.306;2023-08-01T14:16:52;2.90;;;0.90;;
25237;SDS011;13185;50.872;5.306;2023-08-01T14:19:18;2.70;;;0.88;;
25237;SDS011;13185;50.872;5.306;2023-08-01T14:21:43;2.17;;;0.75;;
25237;SDS011;13185;50.872;5.306;2023-08-01T14:24:09;2.85;;;0.70;;
25237;SDS011;13185;50.872;5.306;2023-08-01T14:26:34;3.20;;;0.93;;
25237;SDS011;13185;50.872;5.306;2023-08-01T14:29:00;5.15;;;0.90;;
25237;SDS011;13185;50.872;5.306;2023-08-01T14:31:29;4.53;;;0.73;;
25237;SDS011;13185;50.872;5.306;2023-08-01T14:33:54;3.00;;;0.85;;
25237;SDS011;13185;50.872;5.306;2023-08-01T14:36:20;3.47;;;1.00;;
25237;SDS011;13185;50.872;5.306;2023-08-01T14:38:45;5.40;;;1.13;;
25237;SDS011;13185;50.872;5.306;2023-08-01T14:41:16;4.53;;;1.00;;
25237;SDS011;13185;50.872;5.306;2023-08-01T14:43:42;3.80;;;0.82;;
25237;SDS011;13185;50.872;5.306;2023-08-01T14:46:08;4.97;;;1.27;;
25237;SDS011;13185;50.872;5.306;2023-08-01T14:48:33;4.28;;;0.88;;
25237;SDS011;13185;50.872;5.306;2023-08-01T14:50:59;2.25;;;0.57;;
25237;SDS011;13185;50.872;5.306;2023-08-01T14:53:24;2.97;;;0.80;;
25237;SDS011;13185;50.872;5.306;2023-08-01T14:55:58;3.35;;;0.80;;
25237;SDS011;13185;50.872;5.306;2023-08-01T14:58:29;4.70;;;1.05;;
25237;SDS011;13185;50.872;5.306;2023-08-01T15:00:55;4.72;;;0.85;;
25237;SDS011;13185;50.872;5.306;2023-08-01T15:03:21;3.80;;;1.33;;
25237;SDS011;13185;50.872;5.306;2023-08-01T15:05:46;3.03;;;1.00;;
25237;SDS011;13185;50.872;5.306;2023-08-01T15:08:12;5.70;;;1.23;;
25237;SDS011;13185;50.872;5.306;2023-08-01T15:10:38;4.22;;;0.90;;
25237;SDS011;13185;50.872;5.306;2023-08-01T15:13:04;1.90;;;0.82;;
25237;SDS011;13185;50.872;5.306;2023-08-01T15:15:34;2.60;;;0.88;;
25237;SDS011;13185;50.872;5.306;2023-08-01T15:18:01;2.63;;;0.90;;
25237;SDS011;13185;50.872;5.306;2023-08-01T15:20:26;3.03;;;0.93;;
25237;SDS011;13185;50.872;5.306;2023-08-01T15:22:55;2.95;;;0.90;;
25237;SDS011;13185;50.872;5.306;2023-08-01T15:25:20;5.53;;;1.67;;
25237;SDS011;13185;50.872;5.306;2023-08-01T15:27:46;3.75;;;1.13;;
25237;SDS011;13185;50.872;5.306;2023-08-01T15:30:11;2.08;;;0.80;;
25237;SDS011;13185;50.872;5.306;2023-08-01T15:32:37;2.95;;;0.88;;
25237;SDS011;13185;50.872;5.306;2023-08-01T15:35:03;2.25;;;0.70;;
25237;SDS011;13185;50.872;5.306;2023-08-01T15:37:28;3.53;;;0.85;;
25237;SDS011;13185;50.872;5.306;2023-08-01T15:39:54;6.85;;;1.42;;
25237;SDS011;13185;50.872;5.306;2023-08-01T15:42:19;4.72;;;1.52;;
25237;SDS011;13185;50.872;5.306;2023-08-01T15:44:48;3.35;;;1.10;;
25237;SDS011;13185;50.872;5.306;2023-08-01T15:47:17;5.80;;;1.52;;
25237;SDS011;13185;50.872;5.306;2023-08-01T15:49:42;4.30;;;0.90;;
25237;SDS011;13185;50.872;5.306;2023-08-01T15:52:08;6.15;;;1.48;;
25237;SDS011;13185;50.872;5.306;2023-08-01T15:54:34;4.13;;;1.10;;
25237;SDS011;13185;50.872;5.306;2023-08-01T15:56:59;6.80;;;0.95;;
25237;SDS011;13185;50.872;5.306;2023-08-01T15:59:25;2.03;;;0.90;;
25237;SDS011;13185;50.872;5.306;2023-08-01T16:01:50;5.93;;;0.90;;
25237;SDS011;13185;50.872;5.306;2023-08-01T16:04:16;3.47;;;0.98;;
25237;SDS011;13185;50.872;5.306;2023-08-01T16:06:41;4.10;;;1.20;;
25237;SDS011;13185;50.872;5.306;2023-08-01T16:09:07;3.92;;;1.23;;
25237;SDS011;13185;50.872;5.306;2023-08-01T16:11:32;5.88;;;1.13;;
25237;SDS011;13185;50.872;5.306;2023-08-01T16:13:58;3.20;;;0.90;;
25237;SDS011;13185;50.872;5.306;2023-08-01T16:16:23;3.40;;;0.70;;
25237;SDS011;13185;50.872;5.306;2023-08-01T16:18:49;4.55;;;0.93;;
25237;SDS011;13185;50.872;5.306;2023-08-01T16:21:14;3.50;;;1.00;;
25237;SDS011;13185;50.872;5.306;2023-08-01T16:23:39;4.60;;;1.10;;
25237;SDS011;13185;50.872;5.306;2023-08-01T16:26:05;5.30;;;1.10;;
25237;SDS011;13185;50.872;5.306;2023-08-01T16:28:31;5.45;;;1.50;;
25237;SDS011;13185;50.872;5.306;2023-08-01T16:30:57;4.78;;;1.23;;
25237;SDS011;13185;50.872;5.306;2023-08-01T16:33:22;4.97;;;1.00;;
25237;SDS011;13185;50.872;5.306;2023-08-01T16:35:48;3.70;;;1.10;;
25237;SDS011;13185;50.872;5.306;2023-08-01T16:38:13;3.83;;;0.90;;
25237;SDS011;13185;50.872;5.306;2023-08-01T16:40:39;6.10;;;1.20;;
25237;SDS011;13185;50.872;5.306;2023-08-01T16:43:05;4.18;;;1.20;;
25237;SDS011;13185;50.872;5.306;2023-08-01T16:45:31;5.43;;;0.90;;
25237;SDS011;13185;50.872;5.306;2023-08-01T16:47:57;4.47;;;1.08;;
25237;SDS011;13185;50.872;5.306;2023-08-01T16:50:23;4.25;;;1.10;;
25237;SDS011;13185;50.872;5.306;2023-08-01T16:52:48;4.80;;;1.40;;
25237;SDS011;13185;50.872;5.306;2023-08-01T16:55:14;7.20;;;1.25;;
25237;SDS011;13185;50.872;5.306;2023-08-01T16:57:41;4.47;;;1.15;;
25237;SDS011;13185;50.872;5.306;2023-08-01T17:00:07;3.25;;;0.98;;
25237;SDS011;13185;50.872;5.306;2023-08-01T17:02:34;5.95;;;1.10;;
25237;SDS011;13185;50.872;5.306;2023-08-01T17:05:00;3.78;;;1.13;;
25237;SDS011;13185;50.872;5.306;2023-08-01T17:07:25;5.13;;;1.02;;
25237;SDS011;13185;50.872;5.306;2023-08-01T17:09:51;3.55;;;0.65;;
25237;SDS011;13185;50.872;5.306;2023-08-01T17:12:16;4.38;;;1.02;;
25237;SDS011;13185;50.872;5.306;2023-08-01T17:14:42;4.50;;;1.10;;
25237;SDS011;13185;50.872;5.306;2023-08-01T17:17:07;4.60;;;1.20;;
25237;SDS011;13185;50.872;5.306;2023-08-01T17:19:33;5.25;;;1.08;;
25237;SDS011;13185;50.872;5.306;2023-08-01T17:21:58;4.53;;;0.93;;
25237;SDS011;13185;50.872;5.306;2023-08-01T17:24:24;4.90;;;1.33;;
25237;SDS011;13185;50.872;5.306;2023-08-01T17:26:49;8.05;;;1.45;;
25237;SDS011;13185;50.872;5.306;2023-08-01T17:29:15;4.55;;;1.00;;
25237;SDS011;13185;50.872;5.306;2023-08-01T17:31:40;6.05;;;1.27;;
25237;SDS011;13185;50.872;5.306;2023-08-01T17:34:06;6.00;;;1.40;;
25237;SDS011;13185;50.872;5.306;2023-08-01T17:36:32;4.85;;;1.73;;
25237;SDS011;13185;50.872;5.306;2023-08-01T17:38:58;6.05;;;0.90;;
25237;SDS011;13185;50.872;5.306;2023-08-01T17:41:28;5.32;;;1.20;;
25237;SDS011;13185;50.872;5.306;2023-08-01T17:43:54;4.43;;;1.48;;
25237;SDS011;13185;50.872;5.306;2023-08-01T17:46:22;4.88;;;1.20;;
25237;SDS011;13185;50.872;5.306;2023-08-01T17:48:48;3.63;;;1.00;;
25237;SDS011;13185;50.872;5.306;2023-08-01T17:51:14;4.50;;;1.08;;
25237;SDS011;13185;50.872;5.306;2023-08-01T17:53:40;5.32;;;1.48;;
25237;SDS011;13185;50.872;5.306;2023-08-01T17:56:08;4.53;;;1.10;;
25237;SDS011;13185;50.872;5.306;2023-08-01T17:58:34;7.57;;;1.20;;
25237;SDS011;13185;50.872;5.306;2023-08-01T18:00:59;4.60;;;1.08;;
25237;SDS011;13185;50.872;5.306;2023-08-01T18:03:25;3.65;;;1.02;;
25237;SDS011;13185;50.872;5.306;2023-08-01T18:06:01;4.65;;;1.25;;
25237;SDS011;13185;50.872;5.306;2023-08-01T18:08:28;5.88;;;0.85;;
25237;SDS011;13185;50.872;5.306;2023-08-01T18:10:53;4.75;;;1.08;;
25237;SDS011;13185;50.872;5.306;2023-08-01T18:13:19;6.43;;;1.20;;
25237;SDS011;13185;50.872;5.306;2023-08-01T18:15:44;5.10;;;1.13;;
25237;SDS011;13185;50.872;5.306;2023-08-01T18:18:10;5.30;;;1.50;;
25237;SDS011;13185;50.872;5.306;2023-08-01T18:20:36;4.85;;;1.20;;
25237;SDS011;13185;50.872;5.306;2023-08-01T18:23:01;7.50;;;1.63;;
25237;SDS011;13185;50.872;5.306;2023-08-01T18:25:27;5.20;;;1.20;;
25237;SDS011;13185;50.872;5.306;2023-08-01T18:27:52;3.83;;;1.17;;
25237;SDS011;13185;50.872;5.306;2023-08-01T18:30:18;6.47;;;1.50;;
25237;SDS011;13185;50.872;5.306;2023-08-01T18:32:43;4.13;;;0.90;;
25237;SDS011;13185;50.872;5.306;2023-08-01T18:35:09;6.47;;;1.00;;
25237;SDS011;13185;50.872;5.306;2023-08-01T18:37:35;5.50;;;1.00;;
25237;SDS011;13185;50.872;5.306;2023-08-01T18:40:00;6.70;;;1.45;;
25237;SDS011;13185;50.872;5.306;2023-08-01T18:42:26;4.22;;;0.90;;
25237;SDS011;13185;50.872;5.306;2023-08-01T18:44:52;2.33;;;0.80;;
25237;SDS011;13185;50.872;5.306;2023-08-01T18:47:18;4.75;;;1.15;;
25237;SDS011;13185;50.872;5.306;2023-08-01T18:49:43;4.18;;;0.82;;
25237;SDS011;13185;50.872;5.306;2023-08-01T18:52:14;3.10;;;0.80;;
25237;SDS011;13185;50.872;5.306;2023-08-01T18:54:40;5.45;;;1.10;;
25237;SDS011;13185;50.872;5.306;2023-08-01T18:57:05;5.03;;;1.50;;
25237;SDS011;13185;50.872;5.306;2023-08-01T18:59:31;3.55;;;0.88;;
25237;SDS011;13185;50.872;5.306;2023-08-01T19:01:57;4.22;;;1.17;;
25237;SDS011;13185;50.872;5.306;2023-08-01T19:04:22;4.40;;;1.02;;
25237;SDS011;13185;50.872;5.306;2023-08-01T19:06:48;3.83;;;1.27;;
25237;SDS011;13185;50.872;5.306;2023-08-01T19:09:13;1.92;;;1.00;;
25237;SDS011;13185;50.872;5.306;2023-08-01T19:11:39;3.63;;;1.20;;
25237;SDS011;13185;50.872;5.306;2023-08-01T19:14:04;3.88;;;0.88;;
25237;SDS011;13185;50.872;5.306;2023-08-01T19:16:30;4.88;;;1.00;;
25237;SDS011;13185;50.872;5.306;2023-08-01T19:18:56;5.90;;;1.20;;
25237;SDS011;13185;50.872;5.306;2023-08-01T19:21:21;5.93;;;1.17;;
25237;SDS011;13185;50.872;5.306;2023-08-01T19:23:47;6.97;;;1.30;;
25237;SDS011;13185;50.872;5.306;2023-08-01T19:26:13;5.85;;;1.30;;
25237;SDS011;13185;50.872;5.306;2023-08-01T19:28:38;4.53;;;1.30;;
25237;SDS011;13185;50.872;5.306;2023-08-01T19:31:04;4.53;;;1.52;;
25237;SDS011;13185;50.872;5.306;2023-08-01T19:33:30;5.22;;;1.58;;
25237;SDS011;13185;50.872;5.306;2023-08-01T19:35:56;5.55;;;1.45;;
25237;SDS011;13185;50.872;5.306;2023-08-01T19:38:21;4.45;;;1.33;;
25237;SDS011;13185;50.872;5.306;2023-08-01T19:40:47;4.65;;;1.40;;
25237;SDS011;13185;50.872;5.306;2023-08-01T19:43:13;5.35;;;1.67;;
25237;SDS011;13185;50.872;5.306;2023-08-01T19:45:40;4.32;;;1.33;;
25237;SDS011;13185;50.872;5.306;2023-08-01T19:48:07;3.45;;;1.10;;
25237;SDS011;13185;50.872;5.306;2023-08-01T19:50:35;4.75;;;1.30;;
25237;SDS011;13185;50.872;5.306;2023-08-01T19:53:01;6.78;;;1.40;;
25237;SDS011;13185;50.872;5.306;2023-08-01T19:55:27;5.05;;;1.20;;
25237;SDS011;13185;50.872;5.306;2023-08-01T19:57:53;5.68;;;1.20;;
25237;SDS011;13185;50.872;5.306;2023-08-01T20:00:20;4.65;;;1.45;;
25237;SDS011;13185;50.872;5.306;2023-08-01T20:02:45;5.80;;;1.20;;
25237;SDS011;13185;50.872;5.306;2023-08-01T20:05:11;5.38;;;1.17;;
25237;SDS011;13185;50.872;5.306;2023-08-01T20:07:37;3.08;;;1.00;;
25237;SDS011;13185;50.872;5.306;2023-08-01T20:10:03;4.97;;;1.65;;
25237;SDS011;13185;50.872;5.306;2023-08-01T20:12:29;6.60;;;1.98;;
25237;SDS011;13185;50.872;5.306;2023-08-01T20:14:55;4.43;;;1.30;;
25237;SDS011;13185;50.872;5.306;2023-08-01T20:17:21;6.45;;;1.23;;
25237;SDS011;13185;50.872;5.306;2023-08-01T20:19:47;5.15;;;1.45;;
25237;SDS011;13185;50.872;5.306;2023-08-01T20:22:12;4.60;;;1.73;;
25237;SDS011;13185;50.872;5.306;2023-08-01T20:24:38;6.82;;;1.55;;
25237;SDS011;13185;50.872;5.306;2023-08-01T20:27:03;5.95;;;2.35;;
25237;SDS011;13185;50.872;5.306;2023-08-01T20:29:30;8.13;;;1.65;;
25237;SDS011;13185;50.872;5.306;2023-08-01T20:31:56;5.68;;;1.83;;
25237;SDS011;13185;50.872;5.306;2023-08-01T20:34:23;5.22;;;1.40;;
25237;SDS011;13185;50.872;5.306;2023-08-01T20:36:49;6.88;;;1.48;;
25237;SDS011;13185;50.872;5.306;2023-08-01T20:39:15;3.20;;;1.15;;
25237;SDS011;13185;50.872;5.306;2023-08-01T20:41:41;4.78;;;1.17;;
25237;SDS011;13185;50.872;5.306;2023-08-01T20:44:07;8.27;;;2.00;;
25237;SDS011;13185;50.872;5.306;2023-08-01T20:46:33;3.83;;;1.30;;
25237;SDS011;13185;50.872;5.306;2023-08-01T20:48:59;4.22;;;1.02;;
25237;SDS011;13185;50.872;5.306;2023-08-01T20:51:24;4.68;;;1.48;;
25237;SDS011;13185;50.872;5.306;2023-08-01T20:53:50;4.72;;;1.45;;
25237;SDS011;13185;50.872;5.306;2023-08-01T20:56:15;5.28;;;0.95;;
25237;SDS011;13185;50.872;5.306;2023-08-01T20:58:41;5.22;;;1.00;;
25237;SDS011;13185;50.872;5.306;2023-08-01T21:01:06;5.15;;;1.10;;
25237;SDS011;13185;50.872;5.306;2023-08-01T21:03:32;5.25;;;0.80;;
25237;SDS011;13185;50.872;5.306;2023-08-01T21:05:57;5.15;;;1.00;;
25237;SDS011;13185;50.872;5.306;2023-08-01T21:08:23;4.65;;;0.65;;
25237;SDS011;13185;50.872;5.306;2023-08-01T21:10:48;2.20;;;0.77;;
25237;SDS011;13185;50.872;5.306;2023-08-01T21:13:14;3.20;;;0.80;;
25237;SDS011;13185;50.872;5.306;2023-08-01T21:15:39;2.13;;;0.85;;
25237;SDS011;13185;50.872;5.306;2023-08-01T21:18:05;4.65;;;1.13;;
25237;SDS011;13185;50.872;5.306;2023-08-01T21:20:31;6.88;;;0.80;;
25237;SDS011;13185;50.872;5.306;2023-08-01T21:22:56;3.17;;;1.02;;